createdAt,value
2023-03-12T00:02:22.955Z,7.23
2023-03-12T00:04:50.064Z,7.27
2023-03-12T00:07:16.939Z,7.37
2023-03-12T00:09:44.009Z,7.97
2023-03-12T00:12:11.237Z,6.13
2023-03-12T00:14:38.186Z,3.40
2023-03-12T00:17:05.172Z,3.23
2023-03-12T00:19:32.085Z,3.33
2023-03-12T00:21:59.024Z,3.23
2023-03-12T00:24:25.993Z,2.53
2023-03-12T00:26:53.043Z,2.63
2023-03-12T00:29:20.166Z,3.13
2023-03-12T00:31:47.830Z,3.23
2023-03-12T00:34:14.801Z,3.67
2023-03-12T00:36:41.827Z,2.83
2023-03-12T00:39:08.875Z,3.63
2023-03-12T00:41:36.028Z,2.00
2023-03-12T00:44:03.242Z,2.70
2023-03-12T00:46:30.218Z,2.97
2023-03-12T00:48:57.326Z,2.77
2023-03-12T00:51:24.341Z,3.53
2023-03-12T00:53:51.265Z,4.43
2023-03-12T00:56:18.183Z,3.90
2023-03-12T00:58:46.296Z,4.20
2023-03-12T01:01:13.426Z,2.80
2023-03-12T01:03:40.410Z,2.47
2023-03-12T01:06:08.411Z,3.10
2023-03-12T01:08:35.934Z,1.70
2023-03-12T01:11:02.898Z,2.80
2023-03-12T01:13:30.240Z,3.40
2023-03-12T01:15:57.221Z,4.50
2023-03-12T01:18:24.205Z,2.30
2023-03-12T01:20:51.142Z,4.73
2023-03-12T01:23:18.165Z,4.27
2023-03-12T01:25:45.196Z,5.67
2023-03-12T01:28:12.200Z,2.17
2023-03-12T01:30:39.190Z,5.20
2023-03-12T01:33:06.125Z,2.40
2023-03-12T01:35:37.750Z,3.20
2023-03-12T01:38:05.796Z,3.07
2023-03-12T01:40:34.827Z,3.23
2023-03-12T01:43:24.971Z,3.33
2023-03-12T01:46:21.607Z,4.30
2023-03-12T01:48:57.850Z,2.77
2023-03-12T01:51:33.409Z,2.33
2023-03-12T01:54:05.578Z,3.00
2023-03-12T01:56:35.881Z,3.47
2023-03-12T01:59:14.143Z,2.60
2023-03-12T02:01:42.536Z,4.03
2023-03-12T02:04:11.102Z,2.87
2023-03-12T02:06:45.593Z,2.40
2023-03-12T02:09:13.926Z,3.40
2023-03-12T02:11:41.269Z,3.63
2023-03-12T02:14:08.996Z,3.43
2023-03-12T02:16:36.318Z,2.63
2023-03-12T02:19:08.447Z,3.00
2023-03-12T02:21:37.235Z,2.53
2023-03-12T02:24:17.558Z,2.93
2023-03-12T02:26:44.813Z,2.13
2023-03-12T02:29:12.558Z,2.63
2023-03-12T02:31:44.762Z,2.77
2023-03-12T02:34:12.979Z,4.27
2023-03-12T02:36:40.346Z,4.20
2023-03-12T02:39:08.108Z,3.70
2023-03-12T02:41:42.938Z,4.47
2023-03-12T02:44:22.751Z,4.50
2023-03-12T02:46:54.397Z,2.03
2023-03-12T02:49:25.288Z,4.90
2023-03-12T02:51:53.545Z,4.17
2023-03-12T02:54:21.861Z,3.63
2023-03-12T02:56:50.047Z,2.47
2023-03-12T02:59:20.936Z,4.80
2023-03-12T03:01:56.179Z,4.47
2023-03-12T03:04:24.281Z,2.83
2023-03-12T03:06:51.785Z,4.77
2023-03-12T03:09:19.564Z,3.67
2023-03-12T03:11:47.204Z,2.70
2023-03-12T03:14:14.583Z,2.43
2023-03-12T03:16:42.348Z,3.33
2023-03-12T03:19:11.393Z,2.20
2023-03-12T03:21:38.563Z,3.90
2023-03-12T03:24:06.133Z,3.67
2023-03-12T03:26:33.245Z,2.93
2023-03-12T03:29:00.187Z,4.53
2023-03-12T03:31:27.964Z,2.77
2023-03-12T03:33:55.300Z,3.07
2023-03-12T03:36:23.370Z,4.40
2023-03-12T03:39:00.288Z,3.50
2023-03-12T03:41:27.995Z,3.77
2023-03-12T03:43:58.934Z,5.70
2023-03-12T03:46:26.784Z,4.23
2023-03-12T03:48:59.631Z,3.60
2023-03-12T03:51:27.830Z,4.20
2023-03-12T03:54:00.561Z,3.23
2023-03-12T03:56:28.525Z,3.67
2023-03-12T03:58:58.474Z,3.10
2023-03-12T04:01:26.376Z,3.47
2023-03-12T04:03:54.823Z,3.87
2023-03-12T04:06:21.678Z,4.57
2023-03-12T04:08:48.578Z,2.87
2023-03-12T04:11:20.076Z,4.47
2023-03-12T04:13:47.692Z,2.93
2023-03-12T04:16:18.353Z,4.60
2023-03-12T04:18:46.123Z,2.53
2023-03-12T04:21:14.973Z,3.03
2023-03-12T04:23:43.392Z,2.73
2023-03-12T04:26:12.133Z,4.03
2023-03-12T04:28:39.549Z,3.60
2023-03-12T04:31:08.828Z,4.87
2023-03-12T04:33:50.533Z,2.63
2023-03-12T04:36:19.300Z,5.40
2023-03-12T04:38:48.685Z,5.27
2023-03-12T04:41:18.278Z,3.53
2023-03-12T04:43:52.669Z,2.93
2023-03-12T04:46:20.991Z,5.33
2023-03-12T04:48:48.771Z,3.00
2023-03-12T04:51:16.126Z,3.90
2023-03-12T04:53:43.621Z,2.93
2023-03-12T04:56:12.202Z,2.80
2023-03-12T04:58:39.627Z,2.87
2023-03-12T05:01:07.214Z,4.27
2023-03-12T05:03:44.444Z,3.53
2023-03-12T05:06:11.879Z,2.33
2023-03-12T05:08:38.840Z,2.20
2023-03-12T05:11:05.788Z,7.63
2023-03-12T05:13:32.836Z,3.87
2023-03-12T05:15:59.790Z,6.60
2023-03-12T05:18:27.021Z,5.20
2023-03-12T05:21:03.452Z,2.43
2023-03-12T05:23:31.253Z,4.13
2023-03-12T05:25:59.089Z,3.13
2023-03-12T05:28:28.455Z,2.63
2023-03-12T05:30:59.876Z,4.83
2023-03-12T05:33:28.412Z,5.53
2023-03-12T05:35:56.288Z,3.97
2023-03-12T05:38:23.683Z,3.17
2023-03-12T05:40:54.962Z,3.40
2023-03-12T05:43:23.124Z,3.83
2023-03-12T05:45:50.842Z,2.77
2023-03-12T05:48:18.997Z,5.60
2023-03-12T05:50:45.971Z,5.60
2023-03-12T05:53:13.044Z,4.77
2023-03-12T05:55:41.310Z,3.67
2023-03-12T05:58:08.860Z,3.80
2023-03-12T06:00:38.212Z,3.97
2023-03-12T06:03:06.817Z,4.53
2023-03-12T06:05:35.675Z,2.90
2023-03-12T06:08:03.616Z,4.60
2023-03-12T06:10:31.110Z,3.63
2023-03-12T06:12:58.440Z,3.33
2023-03-12T06:15:25.905Z,2.77
2023-03-12T06:17:52.988Z,5.63
2023-03-12T06:20:19.901Z,4.23
2023-03-12T06:22:46.836Z,2.37
2023-03-12T06:25:15.139Z,6.13
2023-03-12T06:27:42.777Z,3.60
2023-03-12T06:30:10.381Z,3.43
2023-03-12T06:32:37.253Z,6.57
2023-03-12T06:35:05.809Z,3.10
2023-03-12T06:37:32.639Z,2.67
2023-03-12T06:39:59.498Z,9.23
2023-03-12T06:42:26.667Z,2.73
2023-03-12T06:44:54.179Z,5.57
2023-03-12T06:47:21.345Z,3.73
2023-03-12T06:49:48.253Z,3.00
2023-03-12T06:52:15.141Z,4.97
2023-03-12T06:54:42.207Z,4.67
2023-03-12T06:57:09.154Z,3.10
2023-03-12T06:59:36.423Z,2.70
2023-03-12T07:02:03.491Z,3.90
2023-03-12T07:04:30.447Z,2.80
2023-03-12T07:06:57.424Z,5.33
2023-03-12T07:09:24.305Z,3.43
2023-03-12T07:11:51.173Z,2.80
2023-03-12T07:14:20.247Z,2.83
2023-03-12T07:16:47.913Z,3.03
2023-03-12T07:19:14.953Z,5.57
2023-03-12T07:21:41.787Z,3.00
2023-03-12T07:24:09.422Z,3.27
2023-03-12T07:26:36.305Z,3.50
2023-03-12T07:29:05.099Z,4.03
2023-03-12T07:31:32.264Z,3.43
2023-03-12T07:33:59.353Z,2.80
2023-03-12T07:36:26.488Z,6.03
2023-03-12T07:38:53.642Z,4.10
2023-03-12T07:41:20.524Z,3.50
2023-03-12T07:43:47.493Z,5.33
2023-03-12T07:46:15.115Z,3.00
2023-03-12T07:48:44.238Z,3.30
2023-03-12T07:51:11.800Z,4.03
2023-03-12T07:53:38.742Z,3.07
2023-03-12T07:56:06.083Z,3.70
2023-03-12T07:58:35.913Z,5.23
2023-03-12T08:01:03.237Z,4.23
2023-03-12T08:03:30.884Z,2.00
2023-03-12T08:06:00.455Z,4.23
2023-03-12T08:08:28.310Z,3.70
2023-03-12T08:10:55.370Z,4.73
2023-03-12T08:13:24.112Z,3.60
2023-03-12T08:15:53.115Z,3.90
2023-03-12T08:18:21.121Z,3.47
2023-03-12T08:20:51.879Z,3.87
2023-03-12T08:23:19.969Z,2.90
2023-03-12T08:25:50.406Z,4.70
2023-03-12T08:28:18.494Z,5.77
2023-03-12T08:30:50.501Z,4.53
2023-03-12T08:33:17.422Z,5.40
2023-03-12T08:35:44.585Z,3.30
2023-03-12T08:38:12.150Z,4.60
2023-03-12T08:40:39.123Z,6.73
2023-03-12T08:43:07.611Z,4.20
2023-03-12T08:45:38.254Z,4.20
2023-03-12T08:48:06.649Z,4.20
2023-03-12T08:50:33.598Z,4.53
2023-03-12T08:53:00.779Z,3.37
2023-03-12T08:55:30.751Z,4.73
2023-03-12T08:57:57.825Z,4.13
2023-03-12T09:00:25.236Z,4.10
2023-03-12T09:02:53.664Z,3.43
2023-03-12T09:05:21.001Z,3.33
2023-03-12T09:07:48.023Z,5.60
2023-03-12T09:10:14.844Z,5.33
2023-03-12T09:12:41.746Z,3.40
2023-03-12T09:15:09.600Z,3.23
2023-03-12T09:17:37.220Z,2.93
2023-03-12T09:20:08.481Z,3.53
2023-03-12T09:22:39.653Z,2.90
2023-03-12T09:25:08.623Z,4.77
2023-03-12T09:27:39.920Z,4.07
2023-03-12T09:30:12.084Z,4.73
2023-03-12T09:32:39.040Z,3.10
2023-03-12T09:35:07.979Z,3.13
2023-03-12T09:37:35.685Z,3.00
2023-03-12T09:40:05.922Z,3.50
2023-03-12T09:42:47.748Z,2.63
2023-03-12T09:45:20.325Z,4.37
2023-03-12T09:47:51.181Z,4.03
2023-03-12T09:50:24.135Z,3.73
2023-03-12T09:52:53.601Z,4.03
2023-03-12T09:55:22.912Z,3.27
2023-03-12T09:57:51.918Z,2.87
2023-03-12T10:00:33.634Z,3.00
2023-03-12T10:03:33.718Z,4.37
2023-03-12T10:06:13.133Z,2.43
2023-03-12T10:08:58.065Z,2.57
2023-03-12T10:12:01.587Z,1.67
2023-03-12T10:14:51.471Z,3.93
2023-03-12T10:17:44.157Z,2.27
2023-03-12T10:20:31.056Z,2.10
2023-03-12T10:23:19.749Z,3.40
2023-03-12T10:25:55.306Z,3.13
2023-03-12T10:28:31.295Z,2.50
2023-03-12T10:31:03.284Z,2.63
2023-03-12T10:34:00.402Z,2.50
2023-03-12T10:36:38.376Z,3.67
2023-03-12T10:39:14.017Z,2.77
2023-03-12T10:41:42.816Z,3.37
2023-03-12T10:44:14.229Z,3.47
2023-03-12T10:46:56.226Z,3.77
2023-03-12T10:49:26.054Z,4.17
2023-03-12T10:52:06.998Z,4.23
2023-03-12T10:54:37.589Z,4.13
2023-03-12T10:57:04.949Z,3.97
2023-03-12T10:59:34.989Z,3.30
2023-03-12T11:02:04.257Z,2.90
2023-03-12T11:04:34.061Z,4.93
2023-03-12T11:07:18.222Z,3.93
2023-03-12T11:09:45.312Z,5.10
2023-03-12T11:12:31.025Z,3.53
2023-03-12T11:14:59.053Z,4.03
2023-03-12T11:17:28.423Z,4.13
2023-03-12T11:19:55.643Z,3.80
2023-03-12T11:22:34.585Z,4.73
2023-03-12T11:25:06.554Z,3.67
2023-03-12T11:27:51.155Z,2.93
2023-03-12T11:30:24.640Z,3.47
2023-03-12T11:32:52.528Z,3.60
2023-03-12T11:35:33.471Z,3.40
2023-03-12T11:38:16.810Z,3.53
2023-03-12T11:40:59.883Z,2.83
2023-03-12T11:44:14.497Z,4.63
2023-03-12T11:47:10.199Z,3.23
2023-03-12T11:50:06.101Z,4.20
2023-03-12T11:52:56.171Z,4.57
2023-03-12T11:55:23.153Z,3.63
2023-03-12T11:58:19.276Z,3.40
2023-03-12T12:01:02.384Z,4.60
2023-03-12T12:03:59.509Z,3.33
2023-03-12T12:07:00.742Z,4.30
2023-03-12T12:09:30.456Z,4.60
2023-03-12T12:12:06.121Z,2.60
2023-03-12T12:14:50.848Z,4.03
2023-03-12T12:17:17.640Z,3.97
2023-03-12T12:19:50.286Z,4.40
2023-03-12T12:22:34.858Z,5.93
2023-03-12T12:25:25.896Z,5.53
2023-03-12T12:28:30.292Z,6.17
2023-03-12T12:31:37.527Z,9.43
2023-03-12T12:34:55.275Z,7.00
2023-03-12T12:37:29.994Z,7.73
2023-03-12T12:40:11.456Z,7.93
2023-03-12T12:42:48.628Z,6.87
2023-03-12T12:45:15.884Z,8.23
2023-03-12T12:47:48.674Z,8.70
2023-03-12T12:50:24.654Z,7.03
2023-03-12T12:53:00.984Z,9.03
2023-03-12T12:55:35.687Z,6.93
2023-03-12T12:58:26.655Z,8.03
2023-03-12T13:01:00.597Z,9.33
2023-03-12T13:03:29.539Z,9.43
2023-03-12T13:06:02.867Z,9.50
2023-03-12T13:08:44.773Z,8.77
2023-03-12T13:11:19.358Z,6.30
2023-03-12T13:14:11.931Z,9.00
2023-03-12T13:16:42.952Z,10.93
2023-03-12T13:19:16.238Z,10.33
2023-03-12T13:22:07.662Z,12.73
2023-03-12T13:24:46.764Z,8.37
2023-03-12T13:27:25.722Z,10.00
2023-03-12T13:29:57.498Z,12.50
2023-03-12T13:32:36.870Z,11.07
2023-03-12T13:35:29.890Z,11.83
2023-03-12T13:37:56.901Z,10.33
2023-03-12T13:40:29.746Z,13.63
2023-03-12T13:43:11.925Z,16.10
2023-03-12T13:45:47.656Z,16.87
2023-03-12T13:48:18.329Z,11.40
2023-03-12T13:50:59.823Z,11.17
2023-03-12T13:53:40.365Z,10.13
2023-03-12T13:56:11.884Z,13.30
2023-03-12T13:58:44.584Z,11.67
2023-03-12T14:01:19.805Z,13.40
2023-03-12T14:03:52.051Z,11.07
2023-03-12T14:06:23.068Z,12.33
2023-03-12T14:09:14.957Z,11.37
2023-03-12T14:12:08.927Z,8.00
2023-03-12T14:15:06.082Z,10.83
2023-03-12T14:17:36.182Z,12.40
2023-03-12T14:20:21.591Z,12.10
2023-03-12T14:23:16.817Z,11.43
2023-03-12T14:25:47.663Z,12.87
2023-03-12T14:28:20.973Z,13.57
2023-03-12T14:31:12.708Z,8.17
2023-03-12T14:34:04.202Z,11.33
2023-03-12T14:36:40.637Z,9.83
2023-03-12T14:39:27.990Z,11.23
2023-03-12T14:42:02.003Z,11.50
2023-03-12T14:44:30.845Z,9.47
2023-03-12T14:47:07.663Z,10.57
2023-03-12T14:49:44.523Z,14.50
2023-03-12T14:52:22.474Z,10.73
2023-03-12T14:54:57.039Z,13.87
2023-03-12T14:57:24.983Z,12.00
2023-03-12T14:59:57.214Z,13.77
2023-03-12T15:02:26.090Z,11.10
2023-03-12T15:04:56.140Z,17.20
2023-03-12T15:07:31.615Z,13.47
2023-03-12T15:09:58.788Z,15.00
2023-03-12T15:12:30.611Z,17.07
2023-03-12T15:15:06.263Z,13.17
2023-03-12T15:17:34.916Z,15.90
2023-03-12T15:20:09.842Z,14.33
2023-03-12T15:22:37.330Z,9.37
2023-03-12T15:25:29.758Z,11.83
2023-03-12T15:28:23.836Z,16.20
2023-03-12T15:31:10.862Z,16.17
2023-03-12T15:33:39.404Z,13.57
2023-03-12T15:36:26.862Z,14.47
2023-03-12T15:38:58.214Z,15.10
2023-03-12T15:41:43.112Z,12.63
2023-03-12T15:44:19.298Z,13.57
2023-03-12T15:46:53.478Z,10.33
2023-03-12T15:49:28.937Z,14.13
2023-03-12T15:52:05.120Z,13.57
2023-03-12T15:54:32.773Z,11.50
2023-03-12T15:57:34.309Z,15.60
2023-03-12T16:00:13.851Z,14.07
2023-03-12T16:02:51.165Z,11.83
2023-03-12T16:05:23.639Z,12.30
2023-03-12T16:07:51.177Z,13.30
2023-03-12T16:10:22.052Z,16.50
2023-03-12T16:12:51.379Z,11.87
2023-03-12T16:15:27.115Z,16.90
2023-03-12T16:17:54.216Z,14.50
2023-03-12T16:20:21.186Z,15.70
2023-03-12T16:22:48.368Z,16.10
2023-03-12T16:25:15.414Z,13.90
2023-03-12T16:27:55.177Z,12.27
2023-03-12T16:30:31.567Z,13.83
2023-03-12T16:33:01.744Z,15.23
2023-03-12T16:35:31.282Z,19.03
2023-03-12T16:38:02.043Z,16.73
2023-03-12T16:40:33.813Z,15.47
2023-03-12T16:43:04.098Z,21.03
2023-03-12T16:45:34.018Z,17.90
2023-03-12T16:48:04.317Z,20.37
2023-03-12T16:50:31.401Z,14.63
2023-03-12T16:52:58.828Z,13.97
2023-03-12T16:55:31.250Z,9.37
2023-03-12T16:58:01.952Z,11.93
2023-03-12T17:00:31.185Z,12.03
2023-03-12T17:02:59.141Z,10.17
2023-03-12T17:05:28.321Z,14.00
2023-03-12T17:07:56.087Z,13.73
2023-03-12T17:10:23.540Z,16.80
2023-03-12T17:12:50.895Z,15.43
2023-03-12T17:15:23.914Z,15.23
2023-03-12T17:17:51.227Z,12.40
2023-03-12T17:20:20.758Z,12.40
2023-03-12T17:22:48.184Z,16.67
2023-03-12T17:25:27.462Z,19.30
2023-03-12T17:27:56.512Z,16.03
2023-03-12T17:30:24.680Z,15.80
2023-03-12T17:32:54.892Z,12.87
2023-03-12T17:35:22.100Z,12.07
2023-03-12T17:37:49.004Z,13.07
2023-03-12T17:40:16.932Z,11.87
2023-03-12T17:42:44.063Z,14.07
2023-03-12T17:45:11.166Z,13.23
2023-03-12T17:47:38.412Z,14.70
2023-03-12T17:50:06.768Z,13.93
2023-03-12T17:52:34.146Z,15.87
2023-03-12T17:55:01.284Z,16.37
2023-03-12T17:57:28.398Z,14.13
2023-03-12T17:59:55.815Z,16.33
2023-03-12T18:02:23.076Z,15.43
2023-03-12T18:04:50.305Z,10.43
2023-03-12T18:07:17.674Z,12.37
2023-03-12T18:09:44.814Z,11.87
2023-03-12T18:12:12.568Z,18.07
2023-03-12T18:14:39.655Z,14.03
2023-03-12T18:17:07.228Z,17.83
2023-03-12T18:19:35.620Z,13.80
2023-03-12T18:22:02.988Z,19.53
2023-03-12T18:24:30.117Z,13.50
2023-03-12T18:26:57.275Z,10.93
2023-03-12T18:29:24.231Z,11.73
2023-03-12T18:31:51.134Z,12.33
2023-03-12T18:34:18.159Z,12.90
2023-03-12T18:36:45.616Z,12.57
2023-03-12T18:39:12.728Z,16.33
2023-03-12T18:41:41.925Z,14.43
2023-03-12T18:44:09.194Z,13.00
2023-03-12T18:46:36.337Z,19.23
2023-03-12T18:49:05.455Z,15.40
2023-03-12T18:51:32.408Z,12.37
2023-03-12T18:53:59.655Z,14.93
2023-03-12T18:56:28.015Z,14.23
2023-03-12T18:58:55.368Z,17.73
2023-03-12T19:01:22.731Z,12.03
2023-03-12T19:03:49.928Z,13.33
2023-03-12T19:06:17.245Z,14.50
2023-03-12T19:08:44.116Z,18.17
2023-03-12T19:11:15.948Z,18.20
2023-03-12T19:13:43.174Z,16.03
2023-03-12T19:16:12.463Z,15.33
2023-03-12T19:18:39.658Z,19.50
2023-03-12T19:21:09.791Z,15.10
2023-03-12T19:23:37.135Z,23.27
2023-03-12T19:26:04.874Z,17.47
2023-03-12T19:28:32.431Z,17.90
2023-03-12T19:31:04.211Z,15.90
2023-03-12T19:33:31.420Z,16.47
2023-03-12T19:35:58.359Z,18.67
2023-03-12T19:38:26.394Z,17.70
2023-03-12T19:40:55.502Z,23.03
2023-03-12T19:43:23.342Z,20.30
2023-03-12T19:45:51.291Z,16.20
2023-03-12T19:48:18.802Z,15.53
2023-03-12T19:50:46.123Z,23.47
2023-03-12T19:53:13.438Z,20.00
2023-03-12T19:55:40.595Z,17.40
2023-03-12T19:58:08.725Z,18.47
2023-03-12T20:00:35.930Z,19.20
2023-03-12T20:03:05.029Z,15.10
2023-03-12T20:05:32.143Z,13.93
2023-03-12T20:07:59.216Z,14.67
2023-03-12T20:10:27.790Z,24.00
2023-03-12T20:12:54.783Z,15.03
2023-03-12T20:15:21.710Z,22.23
2023-03-12T20:17:48.602Z,14.97
2023-03-12T20:20:16.727Z,19.03
2023-03-12T20:22:43.714Z,14.70
2023-03-12T20:25:11.911Z,21.07
2023-03-12T20:27:39.062Z,15.33
2023-03-12T20:30:07.007Z,21.63
2023-03-12T20:32:34.022Z,14.53
2023-03-12T20:35:00.984Z,13.03
2023-03-12T20:37:28.220Z,16.27
2023-03-12T20:39:55.499Z,16.70
2023-03-12T20:42:22.435Z,16.70
2023-03-12T20:44:49.553Z,16.43
2023-03-12T20:47:16.629Z,14.90
2023-03-12T20:49:43.700Z,16.80
2023-03-12T20:52:10.807Z,16.67
2023-03-12T20:54:37.797Z,16.80
2023-03-12T20:57:04.957Z,13.50
2023-03-12T20:59:31.883Z,11.47
2023-03-12T21:01:58.755Z,9.50
2023-03-12T21:04:25.829Z,12.67
2023-03-12T21:06:52.952Z,12.13
2023-03-12T21:09:22.821Z,11.67
2023-03-12T21:11:50.822Z,13.33
2023-03-12T21:14:17.894Z,12.67
2023-03-12T21:16:45.120Z,10.60
2023-03-12T21:19:12.393Z,11.90
2023-03-12T21:21:39.277Z,8.80
2023-03-12T21:24:06.551Z,13.43
2023-03-12T21:26:33.828Z,8.90
2023-03-12T21:29:01.076Z,12.97
2023-03-12T21:31:28.139Z,12.60
2023-03-12T21:33:56.236Z,9.77
2023-03-12T21:36:23.124Z,14.80
2023-03-12T21:38:52.015Z,9.77
2023-03-12T21:41:19.903Z,10.37
2023-03-12T21:43:47.637Z,15.63
2023-03-12T21:46:17.611Z,12.33
2023-03-12T21:48:46.142Z,10.03
2023-03-12T21:51:15.663Z,10.03
2023-03-12T21:53:43.309Z,10.63
2023-03-12T21:56:10.874Z,13.93
2023-03-12T21:58:38.529Z,10.83
2023-03-12T22:01:26.015Z,11.57
2023-03-12T22:03:53.597Z,13.87
2023-03-12T22:06:20.877Z,9.77
2023-03-12T22:08:52.418Z,9.50
2023-03-12T22:11:20.855Z,11.63
2023-03-12T22:13:48.354Z,12.00
2023-03-12T22:16:16.166Z,7.90
2023-03-12T22:18:45.008Z,11.73
2023-03-12T22:21:20.865Z,10.27
2023-03-12T22:23:51.062Z,12.13
2023-03-12T22:26:19.927Z,11.00
2023-03-12T22:28:51.576Z,9.03
2023-03-12T22:31:20.341Z,11.60
2023-03-12T22:33:47.339Z,8.90
2023-03-12T22:36:16.404Z,9.10
2023-03-12T22:38:43.959Z,9.60
2023-03-12T22:41:11.848Z,10.17
2023-03-12T22:43:38.964Z,8.60
2023-03-12T22:46:06.446Z,12.33
2023-03-12T22:48:33.437Z,11.07
2023-03-12T22:51:00.415Z,10.73
2023-03-12T22:53:27.272Z,11.20
2023-03-12T22:56:05.481Z,7.83
2023-03-12T22:58:32.930Z,9.57
2023-03-12T23:01:08.719Z,10.87
2023-03-12T23:03:37.430Z,6.87
2023-03-12T23:06:08.934Z,8.70
2023-03-12T23:08:36.437Z,10.50
2023-03-12T23:11:05.236Z,8.70
2023-03-12T23:13:35.570Z,9.30
2023-03-12T23:16:04.710Z,10.63
2023-03-12T23:18:32.884Z,13.77
2023-03-12T23:21:23.848Z,13.10
2023-03-12T23:24:10.878Z,9.67
2023-03-12T23:26:38.028Z,9.57
2023-03-12T23:29:06.165Z,11.43
2023-03-12T23:31:33.267Z,15.07
2023-03-12T23:34:00.285Z,13.80
2023-03-12T23:36:27.405Z,11.97
2023-03-12T23:38:54.486Z,8.67
2023-03-12T23:41:24.669Z,13.60
2023-03-12T23:43:52.637Z,12.30
2023-03-12T23:46:20.971Z,9.23
2023-03-12T23:48:48.315Z,7.50
2023-03-12T23:51:16.824Z,9.73
2023-03-12T23:53:46.595Z,12.70
2023-03-12T23:56:16.647Z,9.63
2023-03-12T23:58:44.431Z,11.63
